createdAt,value
2023-04-20T00:01:17.047Z,99798.45
2023-04-20T00:03:45.687Z,99790.66
2023-04-20T00:06:14.136Z,99786.45
2023-04-20T00:08:42.510Z,99786.08
2023-04-20T00:11:10.880Z,99786.88
2023-04-20T00:13:39.089Z,99786.50
2023-04-20T00:16:07.885Z,99786.52
2023-04-20T00:18:36.361Z,99788.17
2023-04-20T00:21:06.230Z,99785.55
2023-04-20T00:23:34.526Z,99782.45
2023-04-20T00:26:02.684Z,99778.30
2023-04-20T00:28:31.477Z,99774.70
2023-04-20T00:30:59.761Z,99776.70
2023-04-20T00:33:27.992Z,99773.15
2023-04-20T00:35:56.714Z,99768.30
2023-04-20T00:38:25.424Z,99763.50
2023-04-20T00:40:55.522Z,99762.11
2023-04-20T00:43:24.896Z,99760.67
2023-04-20T00:45:53.946Z,99758.98
2023-04-20T00:48:22.356Z,99755.38
2023-04-20T00:50:50.558Z,99751.05
2023-04-20T00:53:18.791Z,99749.90
2023-04-20T00:55:46.931Z,99745.13
2023-04-20T00:58:14.987Z,99745.08
2023-04-20T01:00:44.119Z,99739.78
2023-04-20T01:03:12.480Z,99731.58
2023-04-20T01:05:41.017Z,99728.59
2023-04-20T01:08:09.437Z,99725.48
2023-04-20T01:10:37.591Z,99726.27
2023-04-20T01:13:08.360Z,99726.27
2023-04-20T01:15:36.724Z,99726.06
2023-04-20T01:18:06.913Z,99724.02
2023-04-20T01:20:35.053Z,99722.45
2023-04-20T01:23:03.590Z,99723.56
2023-04-20T01:25:32.473Z,99723.20
2023-04-20T01:28:02.194Z,99726.35
2023-04-20T01:30:31.283Z,99727.67
2023-04-20T01:32:59.418Z,99724.02
2023-04-20T01:35:28.502Z,99720.60
2023-04-20T01:37:56.591Z,99715.75
2023-04-20T01:40:26.210Z,99709.78
2023-04-20T01:42:54.868Z,99704.95
2023-04-20T01:45:24.091Z,99702.82
2023-04-20T01:47:52.707Z,99703.05
2023-04-20T01:50:21.048Z,99700.77
2023-04-20T01:52:49.620Z,99701.98
2023-04-20T01:55:20.115Z,99703.63
2023-04-20T01:57:48.345Z,99699.18
2023-04-20T02:00:17.477Z,99693.95
2023-04-20T02:02:46.044Z,99691.64
2023-04-20T02:05:14.632Z,99688.76
2023-04-20T02:07:42.919Z,99689.89
2023-04-20T02:10:11.501Z,99687.54
2023-04-20T02:12:40.319Z,99690.19
2023-04-20T02:15:11.824Z,99689.04
2023-04-20T02:17:41.916Z,99690.00
2023-04-20T02:20:11.003Z,99687.73
2023-04-20T02:22:39.646Z,99690.09
2023-04-20T02:25:09.911Z,99690.34
2023-04-20T02:27:38.642Z,99687.13
2023-04-20T02:30:08.404Z,99688.95
2023-04-20T02:32:37.353Z,99687.77
2023-04-20T02:35:06.391Z,99681.63
2023-04-20T02:37:34.571Z,99679.23
2023-04-20T02:40:03.001Z,99674.89
2023-04-20T02:42:31.989Z,99671.16
2023-04-20T02:45:01.498Z,99667.14
2023-04-20T02:47:30.558Z,99666.11
2023-04-20T02:49:58.725Z,99665.62
2023-04-20T02:52:27.027Z,99672.86
2023-04-20T02:54:57.474Z,99676.27
2023-04-20T02:57:25.752Z,99670.83
2023-04-20T02:59:55.053Z,99668.55
2023-04-20T03:02:28.203Z,99663.18
2023-04-20T03:04:56.967Z,99658.53
2023-04-20T03:07:26.314Z,99651.54
2023-04-20T03:09:54.794Z,99645.48
2023-04-20T03:12:23.305Z,99644.31
2023-04-20T03:15:06.628Z,99643.77
2023-04-20T03:17:57.677Z,99645.92
2023-04-20T03:20:26.622Z,99642.45
2023-04-20T03:22:55.600Z,99641.63
2023-04-20T03:25:25.850Z,99637.96
2023-04-20T03:27:59.881Z,99637.63
2023-04-20T03:30:28.681Z,99637.17
2023-04-20T03:33:02.165Z,99628.26
2023-04-20T03:35:31.236Z,99627.15
2023-04-20T03:37:59.694Z,99627.68
2023-04-20T03:40:28.354Z,99627.77
2023-04-20T03:42:56.600Z,99630.52
2023-04-20T03:45:24.623Z,99629.81
2023-04-20T03:47:52.752Z,99632.30
2023-04-20T03:50:22.522Z,99632.15
2023-04-20T03:52:51.006Z,99635.88
2023-04-20T03:55:19.688Z,99637.15
2023-04-20T03:57:52.512Z,99638.66
2023-04-20T04:00:21.064Z,99633.94
2023-04-20T04:02:50.035Z,99633.48
2023-04-20T04:05:36.486Z,99635.13
2023-04-20T04:08:05.122Z,99631.09
2023-04-20T04:10:33.765Z,99629.59
2023-04-20T04:13:02.157Z,99627.70
2023-04-20T04:15:30.622Z,99625.71
2023-04-20T04:18:02.887Z,99624.31
2023-04-20T04:20:33.147Z,99624.09
2023-04-20T04:23:02.070Z,99622.68
2023-04-20T04:25:40.504Z,99622.99
2023-04-20T04:28:08.890Z,99620.58
2023-04-20T04:30:39.089Z,99618.88
2023-04-20T04:33:10.415Z,99621.52
2023-04-20T04:35:41.733Z,99619.65
2023-04-20T04:38:13.005Z,99617.77
2023-04-20T04:40:45.945Z,99612.95
2023-04-20T04:43:24.632Z,99605.02
2023-04-20T04:46:13.249Z,99602.73
2023-04-20T04:48:42.699Z,99604.30
2023-04-20T04:51:11.218Z,99597.20
2023-04-20T04:53:39.386Z,99597.58
2023-04-20T04:56:07.759Z,99588.29
2023-04-20T04:58:36.216Z,99587.70
2023-04-20T05:01:04.417Z,99587.03
2023-04-20T05:03:32.749Z,99582.76
2023-04-20T05:06:01.002Z,99580.30
2023-04-20T05:08:29.617Z,99580.23
2023-04-20T05:10:58.432Z,99579.73
2023-04-20T05:13:26.617Z,99580.83
2023-04-20T05:15:54.829Z,99575.88
2023-04-20T05:18:23.044Z,99572.17
2023-04-20T05:20:51.496Z,99573.84
2023-04-20T05:23:20.613Z,99572.04
2023-04-20T05:25:49.015Z,99574.84
2023-04-20T05:28:18.725Z,99577.98
2023-04-20T05:30:55.724Z,99573.64
2023-04-20T05:33:25.009Z,99581.98
2023-04-20T05:35:57.446Z,99584.94
2023-04-20T05:38:26.152Z,99592.94
2023-04-20T05:40:54.578Z,99592.66
2023-04-20T05:43:23.147Z,99597.64
2023-04-20T05:45:51.373Z,99600.21
2023-04-20T05:48:20.163Z,99598.09
2023-04-20T05:50:48.441Z,99599.34
2023-04-20T05:53:16.832Z,99602.69
2023-04-20T05:55:45.039Z,99602.91
2023-04-20T05:58:13.242Z,99603.80
2023-04-20T06:00:44.467Z,99600.98
2023-04-20T06:03:16.432Z,99598.81
2023-04-20T06:06:18.396Z,99598.63
2023-04-20T06:08:47.246Z,99594.65
2023-04-20T06:11:15.717Z,99594.09
2023-04-20T06:13:43.877Z,99593.77
2023-04-20T06:16:12.088Z,99592.73
2023-04-20T06:18:43.662Z,99591.94
2023-04-20T06:21:16.020Z,99585.81
2023-04-20T06:23:49.896Z,99584.46
2023-04-20T06:26:18.388Z,99585.71
2023-04-20T06:28:48.728Z,99580.90
2023-04-20T06:31:17.418Z,99583.40
2023-04-20T06:33:45.890Z,99584.32
2023-04-20T06:36:14.052Z,99584.67
2023-04-20T06:38:42.201Z,99583.96
2023-04-20T06:41:10.254Z,99582.36
2023-04-20T06:43:38.723Z,99581.51
2023-04-20T06:46:09.037Z,99581.38
2023-04-20T06:48:38.410Z,99576.29
2023-04-20T06:51:27.047Z,99575.38
2023-04-20T06:53:56.259Z,99573.64
2023-04-20T06:56:24.480Z,99572.94
2023-04-20T06:58:52.459Z,99571.66
2023-04-20T07:01:21.229Z,99570.23
2023-04-20T07:03:50.429Z,99572.80
2023-04-20T07:06:18.648Z,99571.97
2023-04-20T07:08:46.945Z,99575.94
2023-04-20T07:11:15.168Z,99570.91
2023-04-20T07:13:43.480Z,99573.23
2023-04-20T07:16:12.400Z,99570.86
2023-04-20T07:18:41.315Z,99570.09
2023-04-20T07:21:09.894Z,99571.63
2023-04-20T07:23:38.959Z,99572.38
2023-04-20T07:26:08.039Z,99572.83
2023-04-20T07:28:42.362Z,99572.63
2023-04-20T07:31:12.504Z,99575.14
2023-04-20T07:33:41.147Z,99576.53
2023-04-20T07:36:10.272Z,99574.46
2023-04-20T07:38:40.490Z,99575.06
2023-04-20T07:41:11.834Z,99573.06
2023-04-20T07:43:41.846Z,99574.66
2023-04-20T07:46:10.015Z,99574.52
2023-04-20T07:48:39.304Z,99571.64
2023-04-20T07:51:07.822Z,99570.58
2023-04-20T07:53:36.193Z,99570.69
2023-04-20T07:56:07.834Z,99567.91
2023-04-20T07:58:39.077Z,99570.19
2023-04-20T08:01:07.639Z,99571.42
2023-04-20T08:03:36.596Z,99572.03
2023-04-20T08:06:13.854Z,99569.87
2023-04-20T08:08:45.726Z,99568.59
2023-04-20T08:11:14.104Z,99568.83
2023-04-20T08:13:42.989Z,99567.05
2023-04-20T08:16:11.563Z,99566.31
2023-04-20T08:18:40.972Z,99569.54
2023-04-20T08:21:09.587Z,99571.92
2023-04-20T08:23:37.642Z,99571.43
2023-04-20T08:26:06.225Z,99570.23
2023-04-20T08:28:34.716Z,99568.72
2023-04-20T08:31:03.027Z,99570.48
2023-04-20T08:33:32.303Z,99573.59
2023-04-20T08:36:00.980Z,99572.31
2023-04-20T08:38:34.204Z,99571.41
2023-04-20T08:41:03.000Z,99570.66
2023-04-20T08:43:32.129Z,99571.98
2023-04-20T08:46:01.916Z,99572.89
2023-04-20T08:48:37.084Z,99573.96
2023-04-20T08:51:05.739Z,99572.73
2023-04-20T08:53:34.162Z,99573.40
2023-04-20T08:56:02.366Z,99575.45
2023-04-20T08:58:34.337Z,99574.95
2023-04-20T09:01:02.674Z,99577.70
2023-04-20T09:03:33.396Z,99579.44
2023-04-20T09:06:01.886Z,99575.52
2023-04-20T09:08:37.650Z,99578.20
2023-04-20T09:11:06.110Z,99582.89
2023-04-20T09:13:35.304Z,99581.98
2023-04-20T09:16:11.258Z,99581.59
2023-04-20T09:18:43.938Z,99581.10
2023-04-20T09:21:13.548Z,99584.27
2023-04-20T09:23:41.801Z,99578.91
2023-04-20T09:26:17.926Z,99582.12
2023-04-20T09:28:46.485Z,99581.91
2023-04-20T09:31:22.062Z,99583.88
2023-04-20T09:34:01.588Z,99581.08
2023-04-20T09:36:46.954Z,99575.55
2023-04-20T09:39:21.038Z,99575.83
2023-04-20T09:41:56.121Z,99575.94
2023-04-20T09:44:24.883Z,99573.64
2023-04-20T09:46:53.191Z,99571.61
2023-04-20T09:49:21.790Z,99568.21
2023-04-20T09:51:51.166Z,99562.52
2023-04-20T09:54:19.843Z,99567.15
2023-04-20T09:56:48.039Z,99565.90
2023-04-20T09:59:17.396Z,99564.23
2023-04-20T10:01:45.914Z,99563.78
2023-04-20T10:04:15.079Z,99566.88
2023-04-20T10:06:55.207Z,99568.33
2023-04-20T10:09:28.495Z,99566.16
2023-04-20T10:12:09.622Z,99564.61
2023-04-20T10:14:37.774Z,99564.52
2023-04-20T10:17:07.493Z,99563.56
2023-04-20T10:19:45.455Z,99570.46
2023-04-20T10:22:25.181Z,99566.32
2023-04-20T10:24:53.368Z,99568.13
2023-04-20T10:27:21.868Z,99569.66
2023-04-20T10:29:50.048Z,99575.72
2023-04-20T10:32:28.769Z,99573.11
2023-04-20T10:35:04.816Z,99574.52
2023-04-20T10:37:34.472Z,99576.49
2023-04-20T10:40:07.396Z,99575.96
2023-04-20T10:42:45.633Z,99576.98
2023-04-20T10:45:13.982Z,99581.83
2023-04-20T10:47:42.366Z,99585.08
2023-04-20T10:50:12.342Z,99586.70
2023-04-20T10:52:41.986Z,99587.83
2023-04-20T10:55:26.166Z,99589.39
2023-04-20T10:57:54.477Z,99589.71
2023-04-20T11:00:25.086Z,99594.89
2023-04-20T11:02:54.951Z,99592.41
2023-04-20T11:05:24.990Z,99597.69
2023-04-20T11:07:59.998Z,99595.05
2023-04-20T11:10:38.984Z,99600.38
2023-04-20T11:13:07.772Z,99603.84
2023-04-20T11:15:36.352Z,99606.02
2023-04-20T11:18:08.775Z,99607.05
2023-04-20T11:20:37.122Z,99608.81
2023-04-20T11:23:09.045Z,99609.14
2023-04-20T11:25:54.811Z,99608.08
2023-04-20T11:28:23.626Z,99614.29
2023-04-20T11:30:53.712Z,99614.06
2023-04-20T11:33:29.015Z,99610.79
2023-04-20T11:35:57.802Z,99613.44
2023-04-20T11:38:33.325Z,99613.96
2023-04-20T11:41:04.847Z,99615.48
2023-04-20T11:43:33.390Z,99613.67
2023-04-20T11:46:03.075Z,99612.92
2023-04-20T11:48:32.128Z,99609.92
2023-04-20T11:51:00.406Z,99609.80
2023-04-20T11:53:29.045Z,99611.30
2023-04-20T11:55:57.251Z,99607.73
2023-04-20T11:58:25.596Z,99608.63
2023-04-20T12:00:53.875Z,99609.73
2023-04-20T12:03:22.366Z,99608.77
2023-04-20T12:05:50.742Z,99609.20
2023-04-20T12:08:19.215Z,99611.41
2023-04-20T12:10:47.486Z,99612.30
2023-04-20T12:13:16.278Z,99607.71
2023-04-20T12:15:44.331Z,99606.90
2023-04-20T12:18:12.664Z,99610.27
2023-04-20T12:20:40.983Z,99607.79
2023-04-20T12:23:09.139Z,99607.90
2023-04-20T12:25:37.763Z,99612.23
2023-04-20T12:28:07.554Z,99616.02
2023-04-20T12:30:36.264Z,99613.08
2023-04-20T12:33:04.711Z,99617.94
2023-04-20T12:35:33.607Z,99622.66
2023-04-20T12:38:01.808Z,99627.34
2023-04-20T12:40:30.028Z,99625.63
2023-04-20T12:42:58.272Z,99627.23
2023-04-20T12:45:26.943Z,99631.13
2023-04-20T12:47:56.299Z,99631.06
2023-04-20T12:50:27.463Z,99629.23
2023-04-20T12:52:56.607Z,99627.86
2023-04-20T12:55:29.209Z,99630.48
2023-04-20T12:57:58.530Z,99628.65
2023-04-20T13:00:26.959Z,99624.66
2023-04-20T13:02:55.086Z,99623.55
2023-04-20T13:05:23.283Z,99625.97
2023-04-20T13:07:52.095Z,99629.09
2023-04-20T13:10:20.393Z,99628.94
2023-04-20T13:12:48.634Z,99626.05
2023-04-20T13:15:31.886Z,99624.51
2023-04-20T13:18:06.392Z,99625.25
2023-04-20T13:20:34.555Z,99624.72
2023-04-20T13:23:03.008Z,99624.02
2023-04-20T13:25:35.148Z,99626.06
2023-04-20T13:28:03.603Z,99628.25
2023-04-20T13:30:32.095Z,99628.23
2023-04-20T13:33:00.590Z,99628.60
2023-04-20T13:35:29.078Z,99624.43
2023-04-20T13:37:57.238Z,99625.63
2023-04-20T13:40:26.196Z,99623.09
2023-04-20T13:42:54.382Z,99620.86
2023-04-20T13:45:22.701Z,99623.73
2023-04-20T13:47:51.014Z,99622.15
2023-04-20T13:50:19.219Z,99618.16
2023-04-20T13:52:47.371Z,99617.45
2023-04-20T13:55:15.873Z,99617.08
2023-04-20T13:57:44.246Z,99615.42
2023-04-20T14:00:13.831Z,99618.07
2023-04-20T14:02:42.193Z,99615.23
2023-04-20T14:05:10.814Z,99614.16
2023-04-20T14:07:38.994Z,99614.88
2023-04-20T14:17:46.790Z,99613.18
2023-04-20T14:20:15.320Z,99612.52
2023-04-20T14:22:43.984Z,99613.84
2023-04-20T14:25:12.561Z,99611.52
2023-04-20T14:27:40.869Z,99610.82
2023-04-20T14:30:10.270Z,99614.05
2023-04-20T14:32:38.829Z,99612.77
2023-04-20T14:35:09.320Z,99614.42
2023-04-20T14:37:37.694Z,99613.87
2023-04-20T14:40:07.329Z,99617.40
2023-04-20T14:42:35.579Z,99615.13
2023-04-20T14:45:04.828Z,99616.85
2023-04-20T14:47:33.466Z,99620.02
2023-04-20T14:50:01.606Z,99619.97
2023-04-20T14:52:29.849Z,99622.36
2023-04-20T14:55:10.025Z,99623.80
2023-04-20T14:57:38.223Z,99626.80
2023-04-20T15:00:06.895Z,99627.70
2023-04-20T15:02:36.185Z,99628.04
2023-04-20T15:05:08.102Z,99632.58
2023-04-20T15:07:38.336Z,99634.78
2023-04-20T15:10:07.451Z,99634.48
2023-04-20T15:12:35.649Z,99636.83
2023-04-20T15:15:04.743Z,99637.04
2023-04-20T15:17:33.609Z,99635.44
2023-04-20T15:20:02.923Z,99636.19
2023-04-20T15:22:31.418Z,99635.91
2023-04-20T15:24:59.566Z,99636.63
2023-04-20T15:27:27.925Z,99637.43
2023-04-20T15:29:58.389Z,99634.52
2023-04-20T15:32:26.631Z,99636.41
2023-04-20T15:34:54.799Z,99639.73
2023-04-20T15:37:22.805Z,99639.27
2023-04-20T15:39:51.501Z,99638.33
2023-04-20T15:42:19.698Z,99645.23
2023-04-20T15:44:48.164Z,99646.13
2023-04-20T15:47:16.316Z,99649.09
2023-04-20T15:49:44.618Z,99653.50
2023-04-20T15:52:12.982Z,99651.94
2023-04-20T16:02:19.576Z,99649.11
2023-04-20T16:04:48.165Z,99650.12
2023-04-20T16:07:16.569Z,99654.63
2023-04-20T16:09:44.697Z,99653.25
2023-04-20T16:12:13.455Z,99653.26
2023-04-20T16:14:41.705Z,99657.89
2023-04-20T16:17:09.821Z,99653.29
2023-04-20T16:19:38.054Z,99659.96
2023-04-20T16:22:06.334Z,99659.08
2023-04-20T16:24:35.061Z,99663.40
2023-04-20T16:27:04.006Z,99663.30
2023-04-20T16:29:32.065Z,99667.45
2023-04-20T16:32:00.196Z,99667.73
2023-04-20T16:34:28.431Z,99668.00
2023-04-20T16:36:56.576Z,99673.44
2023-04-20T16:39:24.701Z,99674.70
2023-04-20T16:41:52.857Z,99675.73
2023-04-20T16:44:21.309Z,99673.55
2023-04-20T16:46:52.425Z,99674.98
2023-04-20T16:49:20.646Z,99683.30
2023-04-20T16:51:48.977Z,99685.27
2023-04-20T16:54:17.495Z,99686.55
2023-04-20T16:56:46.098Z,99687.52
2023-04-20T16:59:14.099Z,99685.40
2023-04-20T17:01:42.442Z,99680.20
2023-04-20T17:04:11.375Z,99679.33
2023-04-20T17:06:39.654Z,99683.80
2023-04-20T17:09:08.107Z,99688.16
2023-04-20T17:11:36.149Z,99684.25
2023-04-20T17:14:04.269Z,99683.30
2023-04-20T17:16:32.658Z,99687.36
2023-04-20T17:19:00.886Z,99687.94
2023-04-20T17:21:29.274Z,99690.60
2023-04-20T17:23:57.443Z,99691.87
2023-04-20T17:26:25.766Z,99689.71
2023-04-20T17:28:53.998Z,99689.34
2023-04-20T17:31:22.488Z,99689.81
2023-04-20T17:33:50.767Z,99690.50
2023-04-20T17:36:19.202Z,99690.95
2023-04-20T17:38:47.409Z,99693.22
2023-04-20T17:41:18.585Z,99694.52
2023-04-20T17:43:50.530Z,99696.50
2023-04-20T17:46:18.685Z,99698.02
2023-04-20T17:48:47.008Z,99692.05
2023-04-20T17:51:15.392Z,99691.05
2023-04-20T17:53:43.636Z,99689.45
2023-04-20T17:56:11.929Z,99689.08
2023-04-20T17:58:40.178Z,99686.67
2023-04-20T18:01:08.383Z,99683.06
2023-04-20T18:03:37.244Z,99681.98
2023-04-20T18:06:06.719Z,99681.50
2023-04-20T18:08:37.845Z,99680.06
2023-04-20T18:11:07.723Z,99677.25
2023-04-20T18:13:36.518Z,99682.06
2023-04-20T18:16:07.429Z,99679.20
2023-04-20T18:18:36.018Z,99679.48
2023-04-20T18:21:04.516Z,99678.33
2023-04-20T18:23:32.878Z,99675.33
2023-04-20T18:26:00.900Z,99673.34
2023-04-20T18:28:29.432Z,99673.00
2023-04-20T18:30:59.007Z,99675.36
2023-04-20T18:33:27.564Z,99672.30
2023-04-20T18:35:55.674Z,99669.16
2023-04-20T18:38:24.639Z,99661.16
2023-04-20T18:40:52.671Z,99660.14
2023-04-20T18:43:21.311Z,99663.81
2023-04-20T18:45:49.349Z,99661.50
2023-04-20T18:48:17.891Z,99660.73
2023-04-20T18:50:47.433Z,99663.59
2023-04-20T18:53:16.839Z,99660.61
2023-04-20T18:55:44.979Z,99663.14
2023-04-20T18:58:13.137Z,99667.39
2023-04-20T19:00:41.391Z,99669.90
2023-04-20T19:03:10.898Z,99668.67
2023-04-20T19:05:39.223Z,99669.81
2023-04-20T19:08:07.483Z,99669.83
2023-04-20T19:10:35.974Z,99672.67
2023-04-20T19:13:04.379Z,99675.43
2023-04-20T19:15:32.714Z,99671.73
2023-04-20T19:18:00.880Z,99671.46
2023-04-20T19:20:29.230Z,99669.70
2023-04-20T19:22:57.214Z,99667.81
2023-04-20T19:25:25.434Z,99668.19
2023-04-20T19:27:53.445Z,99668.41
2023-04-20T19:30:21.781Z,99666.66
2023-04-20T19:32:50.094Z,99668.22
2023-04-20T19:35:18.293Z,99670.52
2023-04-20T19:37:46.638Z,99672.55
2023-04-20T19:40:14.971Z,99671.30
2023-04-20T19:42:43.570Z,99672.83
2023-04-20T19:45:12.111Z,99672.43
2023-04-20T19:47:41.796Z,99669.66
2023-04-20T19:50:11.249Z,99668.96
2023-04-20T19:52:39.731Z,99664.73
2023-04-20T19:55:08.633Z,99664.44
2023-04-20T19:57:36.760Z,99662.24
2023-04-20T20:00:06.058Z,99663.08
2023-04-20T20:02:41.980Z,99660.71
2023-04-20T20:05:11.889Z,99662.88
2023-04-20T20:07:40.454Z,99661.58
2023-04-20T20:10:08.950Z,99660.69
2023-04-20T20:12:37.729Z,99658.33
2023-04-20T20:15:08.011Z,99655.11
2023-04-20T20:17:37.130Z,99662.22
2023-04-20T20:20:07.350Z,99660.58
2023-04-20T20:22:35.882Z,99662.50
2023-04-20T20:25:04.710Z,99663.44
2023-04-20T20:27:33.652Z,99657.13
2023-04-20T20:30:01.915Z,99658.80
2023-04-20T20:32:31.129Z,99658.55
2023-04-20T20:34:59.580Z,99661.98
2023-04-20T20:37:28.677Z,99653.48
2023-04-20T20:39:57.088Z,99652.35
2023-04-20T20:42:25.949Z,99653.98
2023-04-20T20:44:54.559Z,99648.24
2023-04-20T20:47:23.483Z,99648.94
2023-04-20T20:49:51.593Z,99643.86
2023-04-20T20:52:20.137Z,99636.61
2023-04-20T20:54:48.562Z,99636.16
2023-04-20T20:57:16.844Z,99634.64
2023-04-20T20:59:44.933Z,99633.92
2023-04-20T21:02:13.649Z,99632.05
2023-04-20T21:04:42.092Z,99631.30
2023-04-20T21:07:10.447Z,99629.15
2023-04-20T21:09:38.769Z,99623.73
2023-04-20T21:12:07.747Z,99624.12
2023-04-20T21:14:37.745Z,99621.61
2023-04-20T21:17:05.887Z,99625.59
2023-04-20T21:19:35.135Z,99618.32
2023-04-20T21:22:03.711Z,99615.77
2023-04-20T21:24:32.090Z,99618.41
2023-04-20T21:27:00.662Z,99617.88
2023-04-20T21:29:29.859Z,99619.45
2023-04-20T21:31:58.043Z,99614.02
2023-04-20T21:34:26.372Z,99614.83
2023-04-20T21:36:54.893Z,99611.19
2023-04-20T21:39:23.086Z,99610.77
2023-04-20T21:41:51.549Z,99611.94
2023-04-20T21:44:20.311Z,99610.59
2023-04-20T21:46:48.414Z,99613.64
2023-04-20T21:49:16.970Z,99608.90
2023-04-20T21:51:45.783Z,99610.89
2023-04-20T21:54:14.181Z,99606.34
2023-04-20T21:56:42.594Z,99604.17
2023-04-20T21:59:11.295Z,99602.95
2023-04-20T22:01:40.272Z,99600.09
2023-04-20T22:04:12.525Z,99601.73
2023-04-20T22:06:41.394Z,99602.23
2023-04-20T22:09:09.656Z,99599.87
2023-04-20T22:11:38.016Z,99600.48
2023-04-20T22:14:06.346Z,99598.60
2023-04-20T22:16:34.620Z,99596.13
2023-04-20T22:19:03.604Z,99593.86
2023-04-20T22:21:33.102Z,99592.91
2023-04-20T22:24:01.579Z,99587.12
2023-04-20T22:26:30.048Z,99587.95
2023-04-20T22:28:58.426Z,99586.93
2023-04-20T22:31:26.709Z,99585.34
2023-04-20T22:33:55.022Z,99584.73
2023-04-20T22:36:23.266Z,99582.10
2023-04-20T22:46:25.958Z,99573.63
2023-04-20T22:48:54.517Z,99579.15
2023-04-20T22:51:22.757Z,99576.23
2023-04-20T22:53:50.959Z,99572.77
2023-04-20T22:56:19.212Z,99572.51
2023-04-20T22:58:47.277Z,99574.63
2023-04-20T23:01:15.490Z,99574.21
2023-04-20T23:03:43.697Z,99575.91
2023-04-20T23:06:12.359Z,99572.24
2023-04-20T23:08:41.609Z,99570.25
2023-04-20T23:11:09.773Z,99569.64
2023-04-20T23:13:37.949Z,99565.98
2023-04-20T23:16:06.790Z,99565.50
2023-04-20T23:18:35.121Z,99563.84
2023-04-20T23:21:03.397Z,99562.71
2023-04-20T23:23:32.266Z,99565.45
2023-04-20T23:26:00.551Z,99562.63
2023-04-20T23:28:28.615Z,99561.83
2023-04-20T23:30:56.890Z,99560.88
2023-04-20T23:33:25.153Z,99562.93
2023-04-20T23:35:53.502Z,99564.08
2023-04-20T23:38:21.873Z,99560.85
2023-04-20T23:40:50.134Z,99560.55
2023-04-20T23:43:18.502Z,99560.22
2023-04-20T23:45:47.109Z,99558.52
2023-04-20T23:48:15.579Z,99557.94
2023-04-20T23:50:44.015Z,99557.91
2023-04-20T23:53:12.458Z,99556.75
2023-04-20T23:55:40.700Z,99551.36
2023-04-20T23:58:08.818Z,99554.39
